Terminal Aerodrome Forecast
Issued by NWS Wilmington, OH

Current Version | Previous Version | Graphics & Text | Print | Product List | Glossary On
Versions: 1 2 3 4 5 6 7 8 9 10 11 12 13 14 15 16 17 18 19 20 21 22 23 24 25 26
467
FTUS41 KILN 292337
TAFCMH
TAF
KCMH 292337Z 3000/3024 01009KT P6SM FEW025 OVC220
     FM300200 05006KT P6SM BKN050
     FM300900 07006KT 5SM BR BKN050
     FM301200 08009KT P6SM OVC050
     FM301800 11009G17KT 4SM -SHRA BR OVC025=

USA.gov is the U.S. government's official web portal to all federal, state and local government web resources and services.